createdAt,value
2022-12-11T00:00:06.675Z,24.20
2022-12-11T00:02:33.272Z,25.43
2022-12-11T00:04:59.778Z,24.80
2022-12-11T00:07:26.901Z,24.73
2022-12-11T00:09:53.437Z,24.87
2022-12-11T00:12:19.940Z,25.43
2022-12-11T00:14:46.406Z,25.30
2022-12-11T00:17:12.924Z,25.80
2022-12-11T00:19:39.460Z,22.73
2022-12-11T00:22:05.977Z,23.97
2022-12-11T00:24:32.634Z,24.03
2022-12-11T00:27:00.237Z,23.73
2022-12-11T00:29:27.292Z,23.63
2022-12-11T00:31:53.889Z,24.87
2022-12-11T00:34:20.521Z,28.30
2022-12-11T00:36:47.011Z,30.33
2022-12-11T00:39:13.548Z,30.50
2022-12-11T00:41:40.115Z,27.20
2022-12-11T00:44:06.678Z,27.67
2022-12-11T00:46:33.423Z,30.07
2022-12-11T00:48:59.889Z,28.17
2022-12-11T00:51:26.382Z,29.00
2022-12-11T00:53:52.932Z,28.57
2022-12-11T00:56:22.091Z,29.43
2022-12-11T00:58:49.527Z,26.37
2022-12-11T01:01:21.443Z,29.43
2022-12-11T01:03:48.849Z,28.17
2022-12-11T01:06:22.018Z,30.83
2022-12-11T01:08:48.821Z,31.60
2022-12-11T01:11:16.778Z,31.13
2022-12-11T01:13:43.875Z,32.33
2022-12-11T01:16:15.939Z,32.43
2022-12-11T01:18:43.045Z,32.70
2022-12-11T01:21:12.272Z,30.57
2022-12-11T01:23:39.374Z,31.13
2022-12-11T01:26:07.255Z,30.87
2022-12-11T01:28:34.430Z,31.07
2022-12-11T01:31:01.644Z,30.53
2022-12-11T01:33:28.282Z,29.63
2022-12-11T01:35:54.821Z,29.13
2022-12-11T01:38:21.379Z,29.50
2022-12-11T01:40:49.948Z,28.43
2022-12-11T01:43:16.555Z,29.07
2022-12-11T01:45:46.203Z,28.73
2022-12-11T01:48:18.688Z,27.73
2022-12-11T01:50:49.844Z,27.47
2022-12-11T01:53:23.454Z,28.40
2022-12-11T01:55:53.623Z,28.43
2022-12-11T01:58:23.134Z,28.00
2022-12-11T02:00:49.747Z,28.13
2022-12-11T02:03:16.500Z,26.77
2022-12-11T02:05:43.171Z,28.83
2022-12-11T02:08:09.941Z,25.70
2022-12-11T02:10:54.738Z,25.60
2022-12-11T02:13:34.242Z,25.17
2022-12-11T02:16:14.853Z,25.80
2022-12-11T02:19:07.997Z,24.97
2022-12-11T02:21:41.137Z,24.60
2022-12-11T02:24:22.356Z,24.60
2022-12-11T02:27:21.322Z,24.40
2022-12-11T02:30:03.104Z,25.30
2022-12-11T02:32:44.102Z,24.30
2022-12-11T02:35:14.020Z,25.87
2022-12-11T02:37:43.746Z,25.27
2022-12-11T02:40:14.791Z,26.03
2022-12-11T02:42:44.057Z,25.13
2022-12-11T02:45:12.904Z,25.43
2022-12-11T02:47:39.987Z,24.27
2022-12-11T02:50:11.358Z,25.10
2022-12-11T02:52:41.468Z,25.30
2022-12-11T02:55:10.327Z,25.07
2022-12-11T02:57:46.363Z,25.07
2022-12-11T03:00:13.843Z,24.70
2022-12-11T03:02:41.380Z,25.00
2022-12-11T03:05:09.662Z,25.07
2022-12-11T03:07:40.036Z,24.67
2022-12-11T03:10:10.057Z,24.47
2022-12-11T03:12:40.675Z,24.60
2022-12-11T03:15:11.265Z,25.00
2022-12-11T03:17:52.456Z,25.47
2022-12-11T03:20:35.356Z,23.90
2022-12-11T03:23:11.033Z,22.10
2022-12-11T03:25:53.355Z,23.13
2022-12-11T03:28:27.212Z,23.33
2022-12-11T03:30:54.690Z,23.30
2022-12-11T03:33:26.739Z,23.60
2022-12-11T03:36:01.125Z,23.77
2022-12-11T03:38:51.530Z,23.95
2022-12-11T03:41:21.463Z,22.27
2022-12-11T03:43:52.020Z,23.90
2022-12-11T03:46:22.553Z,26.13
2022-12-11T03:48:50.578Z,24.67
2022-12-11T03:51:17.916Z,23.80
2022-12-11T03:53:46.078Z,25.77
2022-12-11T03:56:15.836Z,24.90
2022-12-11T03:58:42.348Z,24.80
2022-12-11T04:01:10.569Z,25.53
2022-12-11T04:03:38.540Z,25.33
2022-12-11T04:06:05.199Z,24.87
2022-12-11T04:08:32.057Z,25.07
2022-12-11T04:11:17.273Z,25.27
2022-12-11T04:13:43.852Z,26.40
2022-12-11T04:16:10.918Z,25.70
2022-12-11T04:18:56.157Z,26.67
2022-12-11T04:24:16.776Z,23.43
2022-12-11T04:26:47.645Z,25.23
2022-12-11T04:29:15.300Z,24.70
2022-12-11T04:31:41.970Z,25.47
2022-12-11T04:34:08.703Z,25.73
2022-12-11T04:36:35.769Z,28.43
2022-12-11T04:39:02.302Z,26.10
2022-12-11T04:41:28.873Z,26.53
2022-12-11T04:43:55.390Z,26.40
2022-12-11T04:46:23.863Z,27.67
2022-12-11T04:48:57.030Z,27.27
2022-12-11T04:51:24.815Z,24.58
2022-12-11T04:53:51.324Z,26.77
2022-12-11T04:56:17.925Z,25.33
2022-12-11T04:58:45.558Z,25.63
2022-12-11T05:01:17.895Z,23.90
2022-12-11T05:03:45.215Z,23.63
2022-12-11T05:06:13.416Z,23.53
2022-12-11T05:08:42.305Z,23.87
2022-12-11T05:11:12.133Z,24.20
2022-12-11T05:13:39.463Z,25.23
2022-12-11T05:16:08.832Z,24.60
2022-12-11T05:18:35.694Z,25.40
2022-12-11T05:21:05.697Z,24.10
2022-12-11T05:23:32.329Z,25.30
2022-12-11T05:26:01.833Z,26.13
2022-12-11T05:28:29.942Z,25.47
2022-12-11T05:31:01.969Z,26.73
2022-12-11T05:33:29.096Z,25.50
2022-12-11T05:35:55.754Z,25.47
2022-12-11T05:38:23.046Z,25.97
2022-12-11T05:41:01.052Z,26.93
2022-12-11T05:43:29.876Z,24.83
2022-12-11T05:45:57.021Z,26.40
2022-12-11T05:48:23.568Z,25.60
2022-12-11T05:51:00.730Z,24.40
2022-12-11T05:53:27.789Z,24.20
2022-12-11T05:55:54.415Z,24.40
2022-12-11T05:58:21.721Z,24.03
2022-12-11T06:00:48.330Z,25.30
2022-12-11T06:03:15.151Z,24.13
2022-12-11T06:05:42.721Z,24.10
2022-12-11T06:08:09.389Z,25.57
2022-12-11T06:10:36.025Z,22.70
2022-12-11T06:13:02.762Z,23.67
2022-12-11T06:15:29.767Z,23.37
2022-12-11T06:17:56.244Z,23.27
2022-12-11T06:20:22.756Z,23.37
2022-12-11T06:22:49.360Z,23.63
2022-12-11T06:25:16.386Z,23.43
2022-12-11T06:27:42.851Z,24.37
2022-12-11T06:30:09.931Z,23.63
2022-12-11T06:32:36.863Z,24.67
2022-12-11T06:35:03.566Z,23.67
2022-12-11T06:37:30.058Z,24.00
2022-12-11T06:39:56.507Z,23.20
2022-12-11T06:42:22.968Z,22.77
2022-12-11T06:44:49.464Z,22.53
2022-12-11T06:47:16.024Z,24.70
2022-12-11T06:49:42.570Z,22.90
2022-12-11T06:52:11.563Z,23.37
2022-12-11T06:54:41.530Z,22.63
2022-12-11T06:57:09.445Z,22.43
2022-12-11T06:59:36.021Z,21.80
2022-12-11T07:02:03.072Z,21.37
2022-12-11T07:04:30.686Z,19.17
2022-12-11T07:06:57.588Z,20.80
2022-12-11T07:09:24.804Z,20.57
2022-12-11T07:11:52.352Z,19.63
2022-12-11T07:14:20.120Z,19.37
2022-12-11T07:16:46.785Z,20.73
2022-12-11T07:19:13.550Z,21.53
2022-12-11T07:21:40.073Z,19.63
2022-12-11T07:24:07.275Z,19.73
2022-12-11T07:26:33.842Z,20.03
2022-12-11T07:29:00.920Z,19.57
2022-12-11T07:31:29.304Z,19.33
2022-12-11T07:33:57.911Z,17.57
2022-12-11T07:36:25.452Z,19.80
2022-12-11T07:38:52.104Z,17.67
2022-12-11T07:41:18.983Z,17.77
2022-12-11T07:43:46.767Z,19.03
2022-12-11T07:46:20.072Z,18.77
2022-12-11T07:48:48.635Z,18.67
2022-12-11T07:51:19.869Z,19.77
2022-12-11T07:53:48.658Z,20.47
2022-12-11T07:56:16.476Z,20.53
2022-12-11T07:58:43.606Z,16.73
2022-12-11T08:01:15.060Z,18.17
2022-12-11T08:03:42.165Z,17.40
2022-12-11T08:06:09.536Z,18.07
2022-12-11T08:08:36.487Z,18.03
2022-12-11T08:11:04.266Z,15.40
2022-12-11T08:13:30.850Z,14.63
2022-12-11T08:15:57.461Z,16.13
2022-12-11T08:18:24.329Z,16.60
2022-12-11T08:20:51.040Z,16.93
2022-12-11T08:23:17.640Z,18.10
2022-12-11T08:25:44.146Z,18.70
2022-12-11T08:28:10.634Z,19.37
2022-12-11T08:30:39.509Z,18.50
2022-12-11T08:33:06.939Z,18.03
2022-12-11T08:35:33.470Z,15.50
2022-12-11T08:37:59.980Z,16.90
2022-12-11T08:40:26.451Z,18.03
2022-12-11T08:42:52.980Z,16.23
2022-12-11T08:45:19.524Z,16.57
2022-12-11T08:47:46.154Z,16.63
2022-12-11T08:50:12.625Z,16.27
2022-12-11T08:52:39.183Z,16.53
2022-12-11T08:55:06.501Z,14.30
2022-12-11T08:57:33.035Z,15.00
2022-12-11T08:59:59.625Z,15.87
2022-12-11T09:02:26.614Z,15.20
2022-12-11T09:04:53.167Z,14.13
2022-12-11T09:07:19.686Z,16.40
2022-12-11T09:09:46.221Z,14.80
2022-12-11T09:12:12.719Z,15.43
2022-12-11T09:14:39.273Z,13.63
2022-12-11T09:17:06.060Z,13.93
2022-12-11T09:19:32.759Z,13.10
2022-12-11T09:21:59.328Z,12.70
2022-12-11T09:24:26.376Z,13.27
2022-12-11T09:26:54.533Z,12.73
2022-12-11T09:29:21.079Z,13.60
2022-12-11T09:31:49.086Z,14.20
2022-12-11T09:34:15.738Z,14.37
2022-12-11T09:36:42.661Z,13.80
2022-12-11T09:39:10.861Z,14.53
2022-12-11T09:41:40.583Z,13.60
2022-12-11T09:44:41.090Z,14.90
2022-12-11T09:47:19.867Z,13.97
2022-12-11T09:49:49.257Z,13.43
2022-12-11T09:52:20.276Z,13.13
2022-12-11T09:54:57.826Z,14.17
2022-12-11T09:57:32.778Z,14.03
2022-12-11T10:00:13.981Z,13.13
2022-12-11T10:03:17.785Z,13.53
2022-12-11T10:05:51.264Z,12.80
2022-12-11T10:08:23.422Z,12.90
2022-12-11T10:11:16.103Z,13.57
2022-12-11T10:14:17.836Z,13.23
2022-12-11T10:16:51.889Z,14.03
2022-12-11T10:19:24.489Z,14.27
2022-12-11T10:21:52.704Z,13.90
2022-12-11T10:25:07.685Z,14.87
2022-12-11T10:27:21.842Z,16.13
2022-12-11T10:30:01.288Z,14.03
2022-12-11T10:32:56.763Z,16.03
2022-12-11T10:38:02.558Z,16.10
2022-12-11T10:40:30.952Z,14.70
2022-12-11T10:42:57.820Z,15.40
2022-12-11T10:45:25.032Z,14.40
2022-12-11T10:48:03.133Z,14.30
2022-12-11T10:50:29.713Z,13.63
2022-12-11T10:52:57.624Z,15.90
2022-12-11T10:55:53.713Z,15.53
2022-12-11T10:58:24.336Z,13.63
2022-12-11T11:01:07.800Z,12.53
2022-12-11T11:03:36.633Z,12.30
2022-12-11T11:06:17.659Z,12.30
2022-12-11T11:08:49.039Z,11.83
2022-12-11T11:11:28.861Z,11.87
2022-12-11T11:14:05.487Z,10.33
2022-12-11T11:16:35.109Z,10.70
2022-12-11T11:19:01.663Z,9.70
2022-12-11T11:21:30.107Z,10.87
2022-12-11T11:23:56.904Z,11.13
2022-12-11T11:26:23.936Z,10.93
2022-12-11T11:28:53.978Z,11.63
2022-12-11T11:31:23.211Z,11.63
2022-12-11T11:34:03.144Z,12.57
2022-12-11T11:36:33.183Z,11.97
2022-12-11T11:39:02.721Z,11.97
2022-12-11T11:41:29.152Z,14.83
2022-12-11T11:43:59.744Z,12.17
2022-12-11T11:46:43.219Z,12.30
2022-12-11T11:49:31.777Z,12.43
2022-12-11T11:52:15.873Z,13.70
2022-12-11T11:54:58.595Z,12.00
2022-12-11T11:57:35.452Z,11.03
2022-12-11T12:00:10.711Z,12.00
2022-12-11T12:02:37.760Z,11.30
2022-12-11T12:05:04.822Z,12.83
2022-12-11T12:08:12.874Z,12.60
2022-12-11T12:10:45.225Z,11.93
2022-12-11T12:13:49.530Z,11.57
2022-12-11T12:16:53.679Z,12.73
2022-12-11T12:20:08.216Z,13.40
2022-12-11T12:22:50.664Z,11.23
2022-12-11T12:25:33.138Z,10.60
2022-12-11T12:28:05.650Z,11.27
2022-12-11T12:30:45.481Z,12.10
2022-12-11T12:33:27.660Z,10.70
2022-12-11T12:36:07.063Z,9.53
2022-12-11T12:38:55.096Z,11.20
2022-12-11T12:41:38.296Z,10.13
2022-12-11T12:44:13.713Z,10.63
2022-12-11T12:46:50.369Z,10.83
2022-12-11T12:49:30.900Z,11.07
2022-12-11T12:51:58.976Z,11.93
2022-12-11T12:54:27.670Z,10.73
2022-12-11T12:56:55.376Z,14.63
2022-12-11T12:59:24.561Z,11.50
2022-12-11T13:01:57.537Z,12.30
2022-12-11T13:04:55.955Z,11.10
2022-12-11T13:07:29.934Z,10.30
2022-12-11T13:10:07.950Z,10.30
2022-12-11T13:12:44.007Z,14.23
2022-12-11T13:15:43.873Z,10.73
2022-12-11T13:18:36.657Z,9.47
2022-12-11T13:21:25.346Z,8.97
2022-12-11T13:23:52.369Z,7.70
2022-12-11T13:26:30.636Z,8.87
2022-12-11T13:28:58.554Z,8.93
2022-12-11T13:31:35.886Z,8.70
2022-12-11T13:34:33.015Z,8.23
2022-12-11T13:37:01.273Z,7.33
2022-12-11T13:39:31.435Z,5.03
2022-12-11T13:42:05.597Z,4.53
2022-12-11T13:44:42.222Z,4.20
2022-12-11T13:47:14.421Z,4.17
2022-12-11T13:49:43.419Z,5.10
2022-12-11T13:52:22.979Z,5.93
2022-12-11T13:54:51.925Z,6.80
2022-12-11T13:57:21.447Z,7.47
2022-12-11T13:59:52.997Z,6.60
2022-12-11T14:02:40.191Z,6.72
2022-12-11T14:05:10.357Z,7.18
2022-12-11T14:07:42.717Z,7.50
2022-12-11T14:10:18.301Z,7.78
2022-12-11T14:12:55.835Z,6.97
2022-12-11T14:15:22.766Z,8.38
2022-12-11T14:17:51.934Z,7.45
2022-12-11T14:20:24.628Z,8.10
2022-12-11T14:22:51.268Z,9.07
2022-12-11T14:25:27.420Z,9.00
2022-12-11T14:27:56.250Z,8.95
2022-12-11T14:30:28.854Z,9.80
2022-12-11T14:33:04.164Z,9.55
2022-12-11T14:35:39.087Z,8.90
2022-12-11T14:38:17.460Z,9.73
2022-12-11T14:40:48.972Z,10.05
2022-12-11T14:43:25.611Z,9.93
2022-12-11T14:45:58.490Z,8.55
2022-12-11T14:48:54.849Z,8.82
2022-12-11T14:51:28.625Z,9.85
2022-12-11T14:53:55.767Z,8.63
2022-12-11T14:56:28.788Z,8.80
2022-12-11T14:59:03.007Z,8.13
2022-12-11T15:01:32.747Z,8.07
2022-12-11T15:04:30.383Z,7.63
2022-12-11T15:06:58.305Z,8.65
2022-12-11T15:09:36.360Z,9.52
2022-12-11T15:12:18.436Z,10.52
2022-12-11T15:14:53.240Z,9.95
2022-12-11T15:19:51.104Z,7.85
2022-12-11T15:22:19.698Z,8.35
2022-12-11T15:24:47.166Z,7.40
2022-12-11T15:27:37.349Z,8.65
2022-12-11T15:30:15.998Z,19.42
2022-12-11T15:32:42.809Z,9.38
2022-12-11T15:35:52.133Z,10.32
2022-12-11T15:38:30.581Z,9.32
2022-12-11T15:40:59.047Z,9.82
2022-12-11T15:43:27.290Z,9.80
2022-12-11T15:45:53.906Z,11.30
2022-12-11T15:48:20.480Z,13.75
2022-12-11T15:50:47.110Z,11.57
2022-12-11T15:53:13.707Z,11.23
2022-12-11T15:55:40.441Z,12.70
2022-12-11T15:58:15.567Z,12.50
2022-12-11T16:00:42.120Z,11.65
2022-12-11T16:03:14.137Z,11.73
2022-12-11T16:05:41.948Z,10.88
2022-12-11T16:08:14.994Z,11.93
2022-12-11T16:10:45.075Z,13.73
2022-12-11T16:13:12.911Z,12.93
2022-12-11T16:15:42.345Z,14.38
2022-12-11T16:18:14.319Z,12.93
2022-12-11T16:20:42.876Z,14.50
2022-12-11T16:23:10.491Z,12.75
2022-12-11T16:25:39.310Z,13.00
2022-12-11T16:28:07.009Z,12.68
2022-12-11T16:30:35.893Z,12.80
2022-12-11T16:33:10.228Z,11.98
2022-12-11T16:35:38.939Z,13.85
2022-12-11T16:38:05.457Z,15.18
2022-12-11T16:40:32.033Z,14.90
2022-12-11T16:42:58.593Z,17.70
2022-12-11T16:45:27.065Z,16.45
2022-12-11T16:47:54.045Z,20.13
2022-12-11T16:50:21.144Z,20.13
2022-12-11T16:52:47.812Z,19.20
2022-12-11T16:55:15.592Z,38.17
2022-12-11T16:57:42.190Z,22.85
2022-12-11T17:00:12.111Z,20.83
2022-12-11T17:02:39.081Z,35.28
2022-12-11T17:05:06.043Z,22.95
2022-12-11T17:07:33.379Z,18.15
2022-12-11T17:10:01.927Z,177.02
2022-12-11T17:12:29.206Z,33.97
2022-12-11T17:14:57.190Z,43.33
2022-12-11T17:17:24.206Z,22.20
2022-12-11T17:19:50.776Z,15.00
2022-12-11T17:22:17.480Z,14.45
2022-12-11T17:24:43.973Z,18.48
2022-12-11T17:27:10.548Z,23.30
2022-12-11T17:29:37.056Z,20.65
2022-12-11T17:32:06.868Z,19.27
2022-12-11T17:34:38.107Z,19.67
2022-12-11T17:37:05.489Z,20.30
2022-12-11T17:39:32.419Z,18.80
2022-12-11T17:41:59.561Z,19.25
2022-12-11T17:44:26.762Z,22.23
2022-12-11T17:46:53.612Z,40.43
2022-12-11T17:49:20.210Z,35.90
2022-12-11T17:51:47.945Z,21.30
2022-12-11T17:54:14.826Z,20.70
2022-12-11T17:56:41.397Z,20.63
2022-12-11T17:59:07.964Z,19.48
2022-12-11T18:01:34.774Z,22.42
2022-12-11T18:04:01.970Z,21.88
2022-12-11T18:06:29.704Z,21.87
2022-12-11T18:08:57.000Z,22.30
2022-12-11T18:11:24.354Z,20.63
2022-12-11T18:13:53.102Z,22.63
2022-12-11T18:16:31.718Z,22.20
2022-12-11T18:18:58.447Z,20.25
2022-12-11T18:21:29.269Z,20.10
2022-12-11T18:23:56.512Z,20.95
2022-12-11T18:26:23.124Z,20.73
2022-12-11T18:28:50.783Z,22.30
2022-12-11T18:31:18.045Z,21.88
2022-12-11T18:33:46.280Z,19.97
2022-12-11T18:36:14.898Z,21.17
2022-12-11T18:38:42.482Z,22.10
2022-12-11T18:41:14.019Z,27.17
2022-12-11T18:43:40.913Z,27.00
2022-12-11T18:46:10.175Z,23.20
2022-12-11T18:48:37.076Z,29.92
2022-12-11T18:51:13.103Z,28.42
2022-12-11T18:53:40.359Z,33.23
2022-12-11T18:56:10.230Z,29.73
2022-12-11T18:58:37.663Z,32.42
2022-12-11T19:01:17.594Z,33.85
2022-12-11T19:03:44.832Z,32.67
2022-12-11T19:06:17.753Z,33.92
2022-12-11T19:08:44.788Z,33.08
2022-12-11T19:11:18.221Z,35.30
2022-12-11T19:13:45.170Z,38.30
2022-12-11T19:16:26.686Z,37.10
2022-12-11T19:18:54.093Z,35.77
2022-12-11T19:21:20.696Z,34.53
2022-12-11T19:23:47.755Z,33.87
2022-12-11T19:26:17.643Z,31.63
2022-12-11T19:28:44.665Z,29.55
2022-12-11T19:31:13.240Z,37.87
2022-12-11T19:33:41.351Z,35.72
2022-12-11T19:36:16.531Z,39.80
2022-12-11T19:38:44.419Z,41.30
2022-12-11T19:41:16.812Z,47.20
2022-12-11T19:43:43.745Z,41.13
2022-12-11T19:46:10.979Z,41.87
2022-12-11T19:48:38.429Z,43.20
2022-12-11T19:51:07.560Z,38.77
2022-12-11T19:53:35.363Z,41.53
2022-12-11T19:56:02.219Z,43.43
2022-12-11T19:58:29.152Z,43.80
2022-12-11T20:00:55.720Z,44.50
2022-12-11T20:03:22.901Z,45.20
2022-12-11T20:05:49.418Z,46.60
2022-12-11T20:08:46.276Z,43.20
2022-12-11T20:11:07.308Z,44.47
2022-12-11T20:13:33.963Z,46.73
2022-12-11T20:16:01.309Z,44.13
2022-12-11T20:18:27.843Z,45.30
2022-12-11T20:20:54.329Z,44.63
2022-12-11T20:23:20.824Z,38.73
2022-12-11T20:25:47.433Z,36.70
2022-12-11T20:28:15.103Z,35.63
2022-12-11T20:30:41.636Z,35.30
2022-12-11T20:33:08.376Z,34.30
2022-12-11T20:35:34.908Z,34.90
2022-12-11T20:38:01.799Z,35.47
2022-12-11T20:40:28.926Z,35.30
2022-12-11T20:42:55.570Z,35.70
2022-12-11T20:45:22.153Z,35.93
2022-12-11T20:47:48.731Z,38.43
2022-12-11T20:50:15.865Z,36.27
2022-12-11T20:52:42.517Z,35.13
2022-12-11T20:55:10.969Z,37.13
2022-12-11T20:57:42.004Z,40.07
2022-12-11T21:00:12.368Z,39.33
2022-12-11T21:02:39.622Z,41.53
2022-12-11T21:05:06.657Z,37.27
2022-12-11T21:07:33.229Z,35.97
2022-12-11T21:09:59.740Z,29.57
2022-12-11T21:12:31.328Z,30.83
2022-12-11T21:14:58.416Z,31.57
2022-12-11T21:17:24.971Z,31.50
2022-12-11T21:19:51.557Z,28.63
2022-12-11T21:22:18.167Z,26.73
2022-12-11T21:24:44.656Z,26.60
2022-12-11T21:27:11.301Z,25.93
2022-12-11T21:29:38.002Z,28.53
2022-12-11T21:32:04.991Z,28.07
2022-12-11T21:34:31.736Z,28.60
2022-12-11T21:36:58.334Z,28.30
2022-12-11T21:39:26.095Z,26.60
2022-12-11T21:41:52.901Z,27.00
2022-12-11T21:47:06.103Z,26.45
2022-12-11T21:49:32.753Z,23.43
2022-12-11T21:51:59.405Z,25.95
2022-12-11T21:54:26.081Z,25.55
2022-12-11T21:56:54.139Z,29.77
2022-12-11T21:59:20.689Z,33.33
2022-12-11T22:01:47.277Z,31.97
2022-12-11T22:04:15.644Z,33.70
2022-12-11T22:06:43.648Z,34.80
2022-12-11T22:09:13.037Z,31.10
2022-12-11T22:11:40.501Z,33.22
2022-12-11T22:14:07.515Z,30.00
2022-12-11T22:16:35.376Z,29.10
2022-12-11T22:19:02.037Z,28.88
2022-12-11T22:21:29.099Z,27.55
2022-12-11T22:23:56.101Z,29.67
2022-12-11T22:26:26.000Z,29.42
2022-12-11T22:28:53.596Z,29.77
2022-12-11T22:31:23.141Z,29.93
2022-12-11T22:33:51.184Z,31.05
2022-12-11T22:36:18.986Z,28.90
2022-12-11T22:38:45.936Z,32.00
2022-12-11T22:41:29.947Z,30.57
2022-12-11T22:43:57.632Z,32.23
2022-12-11T22:46:27.853Z,30.83
2022-12-11T22:48:55.142Z,31.97
2022-12-11T22:51:22.777Z,31.00
2022-12-11T22:53:49.415Z,29.63
2022-12-11T22:56:16.536Z,29.00
2022-12-11T22:58:43.224Z,29.37
2022-12-11T23:01:35.966Z,29.20
2022-12-11T23:04:02.614Z,28.53
2022-12-11T23:06:29.224Z,26.97
2022-12-11T23:08:59.904Z,28.23
2022-12-11T23:11:29.642Z,32.07
2022-12-11T23:13:56.533Z,29.57
2022-12-11T23:16:25.113Z,31.13
2022-12-11T23:18:52.534Z,36.63
2022-12-11T23:21:22.791Z,37.87
2022-12-11T23:23:49.663Z,40.60
2022-12-11T23:26:18.855Z,37.83
2022-12-11T23:28:46.391Z,33.53
2022-12-11T23:31:13.849Z,39.57
2022-12-11T23:33:40.617Z,38.53
2022-12-11T23:36:07.879Z,36.60
2022-12-11T23:38:34.554Z,40.07
2022-12-11T23:41:02.768Z,42.43
2022-12-11T23:43:29.315Z,39.13
2022-12-11T23:45:55.939Z,39.77
2022-12-11T23:48:22.577Z,40.87
2022-12-11T23:50:49.295Z,41.67
2022-12-11T23:53:15.828Z,42.93
2022-12-11T23:55:44.841Z,36.67
2022-12-11T23:58:11.794Z,34.20
